sensor_id;sensor_type;location;lat;lon;timestamp;temperature;humidity
21267;DHT22;10791;53.108;18.326;2023-12-14T00:03:34;2.20;99.90
21267;DHT22;10791;53.108;18.326;2023-12-14T00:08:37;2.20;99.90
21267;DHT22;10791;53.108;18.326;2023-12-14T00:13:40;2.20;99.90
21267;DHT22;10791;53.108;18.326;2023-12-14T00:18:44;2.20;99.90
21267;DHT22;10791;53.108;18.326;2023-12-14T00:23:47;2.20;99.90
21267;DHT22;10791;53.108;18.326;2023-12-14T00:28:51;2.20;99.90
21267;DHT22;10791;53.108;18.326;2023-12-14T00:34:03;2.20;99.90
21267;DHT22;10791;53.108;18.326;2023-12-14T00:39:10;2.20;99.90
21267;DHT22;10791;53.108;18.326;2023-12-14T00:44:13;2.20;99.90
21267;DHT22;10791;53.108;18.326;2023-12-14T00:49:16;2.10;99.90
21267;DHT22;10791;53.108;18.326;2023-12-14T00:54:22;2.10;99.90
21267;DHT22;10791;53.108;18.326;2023-12-14T00:59:25;2.10;99.90
21267;DHT22;10791;53.108;18.326;2023-12-14T01:04:29;2.10;99.90
21267;DHT22;10791;53.108;18.326;2023-12-14T01:09:32;2.10;99.90
21267;DHT22;10791;53.108;18.326;2023-12-14T01:14:35;2.00;99.90
21267;DHT22;10791;53.108;18.326;2023-12-14T01:19:41;2.00;99.90
21267;DHT22;10791;53.108;18.326;2023-12-14T01:24:44;2.00;99.90
21267;DHT22;10791;53.108;18.326;2023-12-14T01:29:48;2.00;99.90
21267;DHT22;10791;53.108;18.326;2023-12-14T01:34:52;2.00;99.90
21267;DHT22;10791;53.108;18.326;2023-12-14T01:39:55;2.00;99.90
21267;DHT22;10791;53.108;18.326;2023-12-14T01:44:58;2.00;99.90
21267;DHT22;10791;53.108;18.326;2023-12-14T01:50:02;2.00;99.90
21267;DHT22;10791;53.108;18.326;2023-12-14T01:55:06;1.90;99.90
21267;DHT22;10791;53.108;18.326;2023-12-14T02:00:18;1.90;99.90
21267;DHT22;10791;53.108;18.326;2023-12-14T02:05:23;2.00;99.90
21267;DHT22;10791;53.108;18.326;2023-12-14T02:10:26;1.90;99.90
21267;DHT22;10791;53.108;18.326;2023-12-14T02:15:29;1.90;99.90
21267;DHT22;10791;53.108;18.326;2023-12-14T02:20:33;1.90;99.90
21267;DHT22;10791;53.108;18.326;2023-12-14T02:25:36;1.90;99.90
21267;DHT22;10791;53.108;18.326;2023-12-14T02:30:39;1.90;99.90
21267;DHT22;10791;53.108;18.326;2023-12-14T02:35:43;1.90;99.90
21267;DHT22;10791;53.108;18.326;2023-12-14T02:40:46;1.90;99.90
21267;DHT22;10791;53.108;18.326;2023-12-14T02:45:49;1.90;99.90
21267;DHT22;10791;53.108;18.326;2023-12-14T02:50:53;1.80;99.90
21267;DHT22;10791;53.108;18.326;2023-12-14T02:55:59;1.90;99.90
21267;DHT22;10791;53.108;18.326;2023-12-14T03:01:04;1.90;99.90
21267;DHT22;10791;53.108;18.326;2023-12-14T03:06:07;1.90;99.90
21267;DHT22;10791;53.108;18.326;2023-12-14T03:11:20;1.80;99.90
21267;DHT22;10791;53.108;18.326;2023-12-14T03:16:24;1.90;99.90
21267;DHT22;10791;53.108;18.326;2023-12-14T03:21:27;1.90;99.90
21267;DHT22;10791;53.108;18.326;2023-12-14T03:26:31;1.90;99.90
21267;DHT22;10791;53.108;18.326;2023-12-14T03:31:34;1.90;99.90
21267;DHT22;10791;53.108;18.326;2023-12-14T03:36:38;1.80;99.90
21267;DHT22;10791;53.108;18.326;2023-12-14T03:41:42;1.90;99.90
21267;DHT22;10791;53.108;18.326;2023-12-14T03:46:46;1.90;99.90
21267;DHT22;10791;53.108;18.326;2023-12-14T03:51:49;1.80;99.90
21267;DHT22;10791;53.108;18.326;2023-12-14T03:56:52;1.80;99.90
21267;DHT22;10791;53.108;18.326;2023-12-14T04:01:55;1.80;99.90
21267;DHT22;10791;53.108;18.326;2023-12-14T04:06:58;1.90;99.90
21267;DHT22;10791;53.108;18.326;2023-12-14T04:12:02;1.80;99.90
21267;DHT22;10791;53.108;18.326;2023-12-14T04:17:05;1.80;99.90
21267;DHT22;10791;53.108;18.326;2023-12-14T04:22:08;1.80;99.90
21267;DHT22;10791;53.108;18.326;2023-12-14T04:27:12;1.80;99.90
21267;DHT22;10791;53.108;18.326;2023-12-14T04:32:15;1.70;99.90
21267;DHT22;10791;53.108;18.326;2023-12-14T04:37:19;1.70;99.90
21267;DHT22;10791;53.108;18.326;2023-12-14T04:42:22;1.70;99.90
21267;DHT22;10791;53.108;18.326;2023-12-14T04:47:25;1.70;99.90
21267;DHT22;10791;53.108;18.326;2023-12-14T04:52:28;1.70;99.90
21267;DHT22;10791;53.108;18.326;2023-12-14T04:57:32;1.70;99.90
21267;DHT22;10791;53.108;18.326;2023-12-14T05:02:35;1.70;99.90
21267;DHT22;10791;53.108;18.326;2023-12-14T05:07:39;1.70;99.90
21267;DHT22;10791;53.108;18.326;2023-12-14T05:12:42;1.70;99.90
21267;DHT22;10791;53.108;18.326;2023-12-14T05:17:45;1.60;99.90
21267;DHT22;10791;53.108;18.326;2023-12-14T05:22:49;1.60;99.90
21267;DHT22;10791;53.108;18.326;2023-12-14T05:27:52;1.60;99.90
21267;DHT22;10791;53.108;18.326;2023-12-14T05:32:55;1.60;99.90
21267;DHT22;10791;53.108;18.326;2023-12-14T05:38:00;1.60;99.90
21267;DHT22;10791;53.108;18.326;2023-12-14T05:43:03;1.60;99.90
21267;DHT22;10791;53.108;18.326;2023-12-14T05:48:06;1.50;99.90
21267;DHT22;10791;53.108;18.326;2023-12-14T05:53:10;1.50;99.90
21267;DHT22;10791;53.108;18.326;2023-12-14T05:58:14;1.50;99.90
21267;DHT22;10791;53.108;18.326;2023-12-14T06:03:17;1.50;99.90
21267;DHT22;10791;53.108;18.326;2023-12-14T06:08:21;1.50;99.90
21267;DHT22;10791;53.108;18.326;2023-12-14T06:13:24;1.50;99.90
21267;DHT22;10791;53.108;18.326;2023-12-14T06:18:27;1.50;99.90
21267;DHT22;10791;53.108;18.326;2023-12-14T06:23:30;1.50;99.90
21267;DHT22;10791;53.108;18.326;2023-12-14T06:28:34;1.50;99.90
21267;DHT22;10791;53.108;18.326;2023-12-14T06:33:37;1.50;99.90
21267;DHT22;10791;53.108;18.326;2023-12-14T06:38:41;1.50;99.90
21267;DHT22;10791;53.108;18.326;2023-12-14T06:43:44;1.50;99.90
21267;DHT22;10791;53.108;18.326;2023-12-14T06:48:48;1.50;99.90
21267;DHT22;10791;53.108;18.326;2023-12-14T06:53:51;1.50;99.90
21267;DHT22;10791;53.108;18.326;2023-12-14T06:58:55;1.50;99.90
21267;DHT22;10791;53.108;18.326;2023-12-14T07:03:58;1.40;99.90
21267;DHT22;10791;53.108;18.326;2023-12-14T07:09:02;1.40;99.90
21267;DHT22;10791;53.108;18.326;2023-12-14T07:14:05;1.40;99.90
21267;DHT22;10791;53.108;18.326;2023-12-14T07:19:08;1.30;99.90
21267;DHT22;10791;53.108;18.326;2023-12-14T07:24:13;1.40;99.90
21267;DHT22;10791;53.108;18.326;2023-12-14T07:29:17;1.30;99.90
21267;DHT22;10791;53.108;18.326;2023-12-14T07:34:20;1.30;99.90
21267;DHT22;10791;53.108;18.326;2023-12-14T07:39:24;1.40;99.90
21267;DHT22;10791;53.108;18.326;2023-12-14T07:44:27;1.40;99.90
21267;DHT22;10791;53.108;18.326;2023-12-14T07:49:33;1.40;99.90
21267;DHT22;10791;53.108;18.326;2023-12-14T07:54:38;1.40;99.90
21267;DHT22;10791;53.108;18.326;2023-12-14T07:59:41;1.40;99.90
21267;DHT22;10791;53.108;18.326;2023-12-14T08:04:44;1.50;99.90
21267;DHT22;10791;53.108;18.326;2023-12-14T08:09:48;1.50;99.90
21267;DHT22;10791;53.108;18.326;2023-12-14T08:14:52;1.50;99.90
21267;DHT22;10791;53.108;18.326;2023-12-14T08:19:55;1.60;99.90
21267;DHT22;10791;53.108;18.326;2023-12-14T08:24:59;1.60;99.90
21267;DHT22;10791;53.108;18.326;2023-12-14T08:30:03;1.70;99.90
21267;DHT22;10791;53.108;18.326;2023-12-14T08:35:07;1.70;99.90
21267;DHT22;10791;53.108;18.326;2023-12-14T08:40:12;1.80;99.90
21267;DHT22;10791;53.108;18.326;2023-12-14T08:45:15;1.80;99.90
21267;DHT22;10791;53.108;18.326;2023-12-14T08:50:19;1.80;99.90
21267;DHT22;10791;53.108;18.326;2023-12-14T08:55:22;1.90;99.90
21267;DHT22;10791;53.108;18.326;2023-12-14T09:00:26;1.90;99.90
21267;DHT22;10791;53.108;18.326;2023-12-14T09:05:30;2.00;99.90
21267;DHT22;10791;53.108;18.326;2023-12-14T09:10:33;2.10;99.90
21267;DHT22;10791;53.108;18.326;2023-12-14T09:15:37;2.10;99.90
21267;DHT22;10791;53.108;18.326;2023-12-14T09:20:40;2.10;99.90
21267;DHT22;10791;53.108;18.326;2023-12-14T09:25:45;2.20;99.90
21267;DHT22;10791;53.108;18.326;2023-12-14T09:30:49;2.20;99.90
21267;DHT22;10791;53.108;18.326;2023-12-14T09:35:53;2.20;99.90
21267;DHT22;10791;53.108;18.326;2023-12-14T09:40:57;2.30;99.90
21267;DHT22;10791;53.108;18.326;2023-12-14T09:46:00;2.30;99.90
21267;DHT22;10791;53.108;18.326;2023-12-14T09:51:05;2.30;99.90
21267;DHT22;10791;53.108;18.326;2023-12-14T09:56:09;2.30;99.90
21267;DHT22;10791;53.108;18.326;2023-12-14T10:01:22;2.30;99.90
21267;DHT22;10791;53.108;18.326;2023-12-14T10:06:28;2.40;99.90
21267;DHT22;10791;53.108;18.326;2023-12-14T10:11:32;2.40;99.90
21267;DHT22;10791;53.108;18.326;2023-12-14T10:16:35;2.40;99.90
21267;DHT22;10791;53.108;18.326;2023-12-14T10:21:39;2.40;99.90
21267;DHT22;10791;53.108;18.326;2023-12-14T10:26:47;2.50;99.90
21267;DHT22;10791;53.108;18.326;2023-12-14T10:31:51;2.50;99.90
21267;DHT22;10791;53.108;18.326;2023-12-14T10:36:55;2.50;99.90
21267;DHT22;10791;53.108;18.326;2023-12-14T10:41:59;2.50;99.90
21267;DHT22;10791;53.108;18.326;2023-12-14T10:47:18;2.50;99.90
21267;DHT22;10791;53.108;18.326;2023-12-14T10:52:23;2.50;99.90
21267;DHT22;10791;53.108;18.326;2023-12-14T10:57:26;2.50;99.90
21267;DHT22;10791;53.108;18.326;2023-12-14T11:02:39;2.60;99.90
21267;DHT22;10791;53.108;18.326;2023-12-14T11:07:59;2.50;99.90
21267;DHT22;10791;53.108;18.326;2023-12-14T11:13:07;2.50;99.90
21267;DHT22;10791;53.108;18.326;2023-12-14T11:28:29;2.50;99.90
21267;DHT22;10791;53.108;18.326;2023-12-14T11:33:34;2.60;99.90
21267;DHT22;10791;53.108;18.326;2023-12-14T11:38:42;2.60;99.90
21267;DHT22;10791;53.108;18.326;2023-12-14T11:43:47;2.50;99.90
21267;DHT22;10791;53.108;18.326;2023-12-14T11:48:51;2.50;99.90
21267;DHT22;10791;53.108;18.326;2023-12-14T11:53:55;2.50;99.90
21267;DHT22;10791;53.108;18.326;2023-12-14T11:58:59;2.50;99.90
21267;DHT22;10791;53.108;18.326;2023-12-14T12:04:10;2.50;99.90
21267;DHT22;10791;53.108;18.326;2023-12-14T12:09:42;2.50;99.90
21267;DHT22;10791;53.108;18.326;2023-12-14T12:14:45;2.50;99.90
21267;DHT22;10791;53.108;18.326;2023-12-14T12:19:49;2.50;99.90
21267;DHT22;10791;53.108;18.326;2023-12-14T12:24:52;2.40;99.90
21267;DHT22;10791;53.108;18.326;2023-12-14T12:30:10;2.40;99.90
21267;DHT22;10791;53.108;18.326;2023-12-14T12:35:14;2.50;99.90
21267;DHT22;10791;53.108;18.326;2023-12-14T12:40:19;2.50;99.90
21267;DHT22;10791;53.108;18.326;2023-12-14T12:45:23;2.40;99.90
21267;DHT22;10791;53.108;18.326;2023-12-14T12:50:31;2.50;99.90
21267;DHT22;10791;53.108;18.326;2023-12-14T12:55:35;2.50;99.90
21267;DHT22;10791;53.108;18.326;2023-12-14T13:00:38;2.50;99.90
21267;DHT22;10791;53.108;18.326;2023-12-14T13:05:42;2.40;99.90
21267;DHT22;10791;53.108;18.326;2023-12-14T13:10:47;2.40;99.90
21267;DHT22;10791;53.108;18.326;2023-12-14T13:15:53;2.40;99.90
21267;DHT22;10791;53.108;18.326;2023-12-14T13:20:57;2.40;99.90
21267;DHT22;10791;53.108;18.326;2023-12-14T13:26:00;2.30;99.90
21267;DHT22;10791;53.108;18.326;2023-12-14T13:31:05;2.30;99.90
21267;DHT22;10791;53.108;18.326;2023-12-14T13:36:09;2.30;99.90
21267;DHT22;10791;53.108;18.326;2023-12-14T13:41:13;2.30;99.90
21267;DHT22;10791;53.108;18.326;2023-12-14T13:46:17;2.20;99.90
21267;DHT22;10791;53.108;18.326;2023-12-14T13:51:25;2.20;99.90
21267;DHT22;10791;53.108;18.326;2023-12-14T13:56:29;2.10;99.90
21267;DHT22;10791;53.108;18.326;2023-12-14T14:01:32;2.10;99.90
21267;DHT22;10791;53.108;18.326;2023-12-14T14:06:36;2.10;99.90
21267;DHT22;10791;53.108;18.326;2023-12-14T14:11:39;2.10;99.90
21267;DHT22;10791;53.108;18.326;2023-12-14T14:16:48;2.10;99.90
21267;DHT22;10791;53.108;18.326;2023-12-14T14:21:52;2.00;99.90
21267;DHT22;10791;53.108;18.326;2023-12-14T14:26:55;2.00;99.90
21267;DHT22;10791;53.108;18.326;2023-12-14T14:31:59;2.00;99.90
21267;DHT22;10791;53.108;18.326;2023-12-14T14:37:03;2.00;99.90
21267;DHT22;10791;53.108;18.326;2023-12-14T14:42:06;2.00;99.90
21267;DHT22;10791;53.108;18.326;2023-12-14T14:47:10;2.00;99.90
21267;DHT22;10791;53.108;18.326;2023-12-14T14:52:13;1.90;99.90
21267;DHT22;10791;53.108;18.326;2023-12-14T14:57:18;1.90;99.90
21267;DHT22;10791;53.108;18.326;2023-12-14T15:02:22;1.90;99.90
21267;DHT22;10791;53.108;18.326;2023-12-14T15:07:25;1.90;99.90
21267;DHT22;10791;53.108;18.326;2023-12-14T15:12:29;1.90;99.90
21267;DHT22;10791;53.108;18.326;2023-12-14T15:17:33;1.90;99.90
21267;DHT22;10791;53.108;18.326;2023-12-14T15:22:36;1.90;99.90
21267;DHT22;10791;53.108;18.326;2023-12-14T15:27:40;1.90;99.90
21267;DHT22;10791;53.108;18.326;2023-12-14T15:32:43;1.90;99.90
21267;DHT22;10791;53.108;18.326;2023-12-14T15:37:47;1.90;99.90
21267;DHT22;10791;53.108;18.326;2023-12-14T15:42:50;1.90;99.90
21267;DHT22;10791;53.108;18.326;2023-12-14T15:47:54;1.80;99.90
21267;DHT22;10791;53.108;18.326;2023-12-14T15:52:58;1.80;99.90
21267;DHT22;10791;53.108;18.326;2023-12-14T15:58:02;1.80;99.90
21267;DHT22;10791;53.108;18.326;2023-12-14T16:03:05;1.80;99.90
21267;DHT22;10791;53.108;18.326;2023-12-14T16:08:12;1.70;99.90
21267;DHT22;10791;53.108;18.326;2023-12-14T16:13:15;1.80;99.90
21267;DHT22;10791;53.108;18.326;2023-12-14T16:18:18;1.80;99.90
21267;DHT22;10791;53.108;18.326;2023-12-14T16:23:23;1.80;99.90
21267;DHT22;10791;53.108;18.326;2023-12-14T16:28:26;1.80;99.90
21267;DHT22;10791;53.108;18.326;2023-12-14T16:33:29;1.70;99.90
21267;DHT22;10791;53.108;18.326;2023-12-14T16:38:33;1.80;99.90
21267;DHT22;10791;53.108;18.326;2023-12-14T16:43:36;1.90;99.90
21267;DHT22;10791;53.108;18.326;2023-12-14T16:48:40;2.00;99.90
21267;DHT22;10791;53.108;18.326;2023-12-14T16:53:43;2.00;99.90
21267;DHT22;10791;53.108;18.326;2023-12-14T16:58:46;2.10;99.90
21267;DHT22;10791;53.108;18.326;2023-12-14T17:03:50;2.10;99.90
21267;DHT22;10791;53.108;18.326;2023-12-14T17:08:53;2.10;99.90
21267;DHT22;10791;53.108;18.326;2023-12-14T17:13:57;2.10;99.90
21267;DHT22;10791;53.108;18.326;2023-12-14T17:19:00;2.10;99.90
21267;DHT22;10791;53.108;18.326;2023-12-14T17:24:04;2.00;99.90
21267;DHT22;10791;53.108;18.326;2023-12-14T17:29:08;2.00;99.90
21267;DHT22;10791;53.108;18.326;2023-12-14T17:34:13;2.00;99.90
21267;DHT22;10791;53.108;18.326;2023-12-14T17:39:16;1.90;99.90
21267;DHT22;10791;53.108;18.326;2023-12-14T17:44:20;1.90;99.90
21267;DHT22;10791;53.108;18.326;2023-12-14T17:49:23;1.80;99.90
21267;DHT22;10791;53.108;18.326;2023-12-14T17:54:27;1.90;99.90
21267;DHT22;10791;53.108;18.326;2023-12-14T17:59:30;2.00;99.90
21267;DHT22;10791;53.108;18.326;2023-12-14T18:04:38;1.90;99.90
21267;DHT22;10791;53.108;18.326;2023-12-14T18:09:43;1.90;99.90
21267;DHT22;10791;53.108;18.326;2023-12-14T18:14:47;1.90;99.90
21267;DHT22;10791;53.108;18.326;2023-12-14T18:19:51;1.90;99.90
21267;DHT22;10791;53.108;18.326;2023-12-14T18:24:58;1.90;99.90
21267;DHT22;10791;53.108;18.326;2023-12-14T18:35:58;1.90;99.90
21267;DHT22;10791;53.108;18.326;2023-12-14T18:41:13;1.80;99.90
21267;DHT22;10791;53.108;18.326;2023-12-14T18:53:22;1.90;99.90
21267;DHT22;10791;53.108;18.326;2023-12-14T18:58:28;2.00;99.90
21267;DHT22;10791;53.108;18.326;2023-12-14T19:03:32;2.00;99.90
21267;DHT22;10791;53.108;18.326;2023-12-14T19:08:39;2.00;99.90
21267;DHT22;10791;53.108;18.326;2023-12-14T19:13:45;2.00;99.90
21267;DHT22;10791;53.108;18.326;2023-12-14T19:18:51;2.00;99.90
21267;DHT22;10791;53.108;18.326;2023-12-14T19:23:56;2.10;99.90
21267;DHT22;10791;53.108;18.326;2023-12-14T19:29:01;2.10;99.90
21267;DHT22;10791;53.108;18.326;2023-12-14T19:34:07;2.10;99.90
21267;DHT22;10791;53.108;18.326;2023-12-14T19:39:13;2.10;99.90
21267;DHT22;10791;53.108;18.326;2023-12-14T19:44:17;2.20;99.90
21267;DHT22;10791;53.108;18.326;2023-12-14T19:49:24;2.10;99.90
21267;DHT22;10791;53.108;18.326;2023-12-14T19:54:28;2.10;99.90
21267;DHT22;10791;53.108;18.326;2023-12-14T19:59:33;2.00;99.90
21267;DHT22;10791;53.108;18.326;2023-12-14T20:04:41;2.00;99.90
21267;DHT22;10791;53.108;18.326;2023-12-14T20:09:49;2.10;99.90
21267;DHT22;10791;53.108;18.326;2023-12-14T20:15:11;2.10;99.90
21267;DHT22;10791;53.108;18.326;2023-12-14T20:20:17;2.10;99.90
21267;DHT22;10791;53.108;18.326;2023-12-14T20:25:22;2.10;99.90
21267;DHT22;10791;53.108;18.326;2023-12-14T20:30:27;2.10;99.90
21267;DHT22;10791;53.108;18.326;2023-12-14T20:35:37;2.10;99.90
21267;DHT22;10791;53.108;18.326;2023-12-14T20:40:49;2.20;99.90
21267;DHT22;10791;53.108;18.326;2023-12-14T20:45:53;2.10;99.90
21267;DHT22;10791;53.108;18.326;2023-12-14T20:50:57;2.10;99.90
21267;DHT22;10791;53.108;18.326;2023-12-14T20:56:02;2.10;99.90
21267;DHT22;10791;53.108;18.326;2023-12-14T21:07:10;2.10;99.90
21267;DHT22;10791;53.108;18.326;2023-12-14T21:12:15;2.10;99.90
21267;DHT22;10791;53.108;18.326;2023-12-14T21:17:27;2.10;99.90
21267;DHT22;10791;53.108;18.326;2023-12-14T21:22:31;2.10;99.90
21267;DHT22;10791;53.108;18.326;2023-12-14T21:27:36;2.00;99.90
21267;DHT22;10791;53.108;18.326;2023-12-14T21:32:52;1.90;99.90
21267;DHT22;10791;53.108;18.326;2023-12-14T21:37:57;1.90;99.90
21267;DHT22;10791;53.108;18.326;2023-12-14T21:43:01;1.80;99.90
21267;DHT22;10791;53.108;18.326;2023-12-14T21:48:05;1.80;99.90
21267;DHT22;10791;53.108;18.326;2023-12-14T21:53:08;1.70;99.90
21267;DHT22;10791;53.108;18.326;2023-12-14T21:58:11;1.70;99.90
21267;DHT22;10791;53.108;18.326;2023-12-14T22:03:15;1.70;99.90
21267;DHT22;10791;53.108;18.326;2023-12-14T22:08:18;1.70;99.90
21267;DHT22;10791;53.108;18.326;2023-12-14T22:13:22;1.70;99.90
21267;DHT22;10791;53.108;18.326;2023-12-14T22:18:26;1.70;99.90
21267;DHT22;10791;53.108;18.326;2023-12-14T22:23:30;1.60;99.90
21267;DHT22;10791;53.108;18.326;2023-12-14T22:28:33;1.60;99.90
21267;DHT22;10791;53.108;18.326;2023-12-14T22:33:37;1.60;99.90
21267;DHT22;10791;53.108;18.326;2023-12-14T22:38:40;1.60;99.90
21267;DHT22;10791;53.108;18.326;2023-12-14T22:43:44;1.60;99.90
21267;DHT22;10791;53.108;18.326;2023-12-14T22:48:47;1.60;99.90
21267;DHT22;10791;53.108;18.326;2023-12-14T22:53:50;1.50;99.90
21267;DHT22;10791;53.108;18.326;2023-12-14T22:58:54;1.40;99.90
21267;DHT22;10791;53.108;18.326;2023-12-14T23:03:58;1.40;99.90
21267;DHT22;10791;53.108;18.326;2023-12-14T23:09:03;1.40;99.90
21267;DHT22;10791;53.108;18.326;2023-12-14T23:14:09;1.40;99.90
21267;DHT22;10791;53.108;18.326;2023-12-14T23:19:13;1.30;99.90
21267;DHT22;10791;53.108;18.326;2023-12-14T23:24:17;1.40;99.90
21267;DHT22;10791;53.108;18.326;2023-12-14T23:29:26;1.40;99.90
21267;DHT22;10791;53.108;18.326;2023-12-14T23:34:30;1.30;99.90
21267;DHT22;10791;53.108;18.326;2023-12-14T23:39:33;1.30;99.90
21267;DHT22;10791;53.108;18.326;2023-12-14T23:44:37;1.20;99.90
21267;DHT22;10791;53.108;18.326;2023-12-14T23:49:40;1.20;99.90
21267;DHT22;10791;53.108;18.326;2023-12-14T23:54:43;1.20;99.90
21267;DHT22;10791;53.108;18.326;2023-12-14T23:59:47;1.20;99.90
